Time;durP1;ratioP1;P1;durP2;ratioP2;P2;SDS_P1;SDS_P2;PMS_P1;PMS_P2;Temp;Humidity;BMP_temperature;BMP_pressure;BME280_temperature;BME280_humidity;BME280_pressure;Samples;Min_cycle;Max_cycle;Signal;HPM_P1;HPM_P2
2021/12/30 00:00:29;;;;;;;8.30;7.43;;;8.00;94.10;;;;;;5065917;28;20500;-61
2021/12/30 00:02:55;;;;;;;10.53;8.47;;;8.00;92.10;;;;;;5062201;28;20412;-58
2021/12/30 00:05:21;;;;;;;9.80;7.70;;;8.20;94.40;;;;;;5066413;28;20445;-61
2021/12/30 00:07:46;;;;;;;11.53;9.20;;;8.00;96.00;;;;;;5061553;28;20188;-61
2021/12/30 00:10:12;;;;;;;9.43;8.50;;;8.00;92.80;;;;;;5062864;28;20233;-61
2021/12/30 00:12:38;;;;;;;11.80;8.20;;;8.00;92.10;;;;;;5063455;28;20181;-61
2021/12/30 00:15:07;;;;;;;11.07;7.87;;;8.10;93.90;;;;;;5056792;28;20207;-61
2021/12/30 00:17:34;;;;;;;10.93;8.03;;;;;;;;;;5065507;28;20441;-61
2021/12/30 00:20:01;;;;;;;8.97;7.43;;;8.10;93.50;;;;;;5073629;28;20427;-59
2021/12/30 00:22:28;;;;;;;11.37;8.43;;;8.10;94.00;;;;;;5067060;28;20454;-59
2021/12/30 00:24:53;;;;;;;9.30;7.20;;;8.20;92.20;;;;;;5066095;28;20802;-60
2021/12/30 00:27:19;;;;;;;11.23;8.13;;;8.30;92.30;;;;;;5060010;28;20491;-59
2021/12/30 00:29:44;;;;;;;8.40;7.50;;;8.20;90.50;;;;;;5062388;28;20184;-60
2021/12/30 00:32:10;;;;;;;11.33;7.50;;;8.20;92.20;;;;;;5054363;28;20216;-60
2021/12/30 00:34:36;;;;;;;11.20;7.87;;;8.30;95.50;;;;;;5061111;28;20276;-61
2021/12/30 00:37:01;;;;;;;9.90;7.60;;;8.30;96.90;;;;;;5058511;28;20491;-60
2021/12/30 00:39:27;;;;;;;8.50;7.30;;;8.30;96.20;;;;;;5060755;28;20686;-59
2021/12/30 00:41:52;;;;;;;10.10;7.40;;;8.30;96.50;;;;;;5060754;28;20196;-57
2021/12/30 00:44:18;;;;;;;11.50;8.27;;;8.40;95.40;;;;;;5063270;28;20192;-60
2021/12/30 00:46:43;;;;;;;10.27;7.93;;;8.50;95.70;;;;;;5061088;28;20192;-60
2021/12/30 00:49:09;;;;;;;10.07;7.77;;;8.40;94.00;;;;;;5067836;28;20190;-61
2021/12/30 00:51:36;;;;;;;9.67;8.27;;;8.40;92.20;;;;;;5058879;28;20669;-60
2021/12/30 00:54:02;;;;;;;8.70;7.10;;;8.30;96.70;;;;;;5064810;28;20413;-60
2021/12/30 00:56:27;;;;;;;9.30;8.00;;;8.30;96.30;;;;;;5067072;28;20492;-60
2021/12/30 00:58:53;;;;;;;9.70;8.67;;;8.30;99.60;;;;;;5053980;28;20494;-61
2021/12/30 01:01:19;;;;;;;10.23;8.07;;;8.20;99.90;;;;;;5053661;28;20183;-60
2021/12/30 01:03:45;;;;;;;10.03;8.23;;;8.30;99.90;;;;;;5064317;28;20207;-60
2021/12/30 01:06:11;;;;;;;12.10;8.17;;;;;;;;;;5065170;28;20833;-60
2021/12/30 01:08:37;;;;;;;10.87;8.50;;;8.20;99.90;;;;;;5062492;28;20189;-58
2021/12/30 01:11:06;;;;;;;8.57;7.20;;;8.30;99.90;;;;;;5059994;28;20478;-61
2021/12/30 01:13:38;;;;;;;10.73;7.27;;;8.20;99.90;;;;;;5057598;28;20172;-59
2021/12/30 01:16:06;;;;;;;10.27;7.27;;;8.20;99.90;;;;;;5066494;28;20526;-60
2021/12/30 01:18:54;;;;;;;10.37;8.07;;;8.10;99.90;;;;;;5056099;28;20856;-60
2021/12/30 01:21:21;;;;;;;9.00;7.13;;;8.10;99.90;;;;;;5058563;28;20428;-59
2021/12/30 01:23:46;;;;;;;9.20;6.57;;;8.10;99.90;;;;;;5055211;28;20932;-59
2021/12/30 01:26:12;;;;;;;9.00;7.30;;;8.10;99.90;;;;;;5056518;28;20436;-60
2021/12/30 01:28:38;;;;;;;9.50;7.50;;;8.10;99.90;;;;;;5066023;28;20184;-59
2021/12/30 01:31:05;;;;;;;9.23;7.40;;;8.10;99.90;;;;;;5058209;28;20215;-61
2021/12/30 01:33:31;;;;;;;9.57;8.20;;;8.10;99.90;;;;;;5061439;28;20525;-59
2021/12/30 01:35:56;;;;;;;9.27;7.37;;;8.10;99.90;;;;;;5059451;28;20602;-59
2021/12/30 01:38:22;;;;;;;10.10;7.37;;;8.10;99.90;;;;;;5068003;28;20175;-58
2021/12/30 01:40:50;;;;;;;10.73;8.40;;;8.20;99.90;;;;;;5067159;28;20199;-61
2021/12/30 01:43:16;;;;;;;8.90;7.20;;;8.20;99.90;;;;;;5065654;28;20313;-59
2021/12/30 01:45:43;;;;;;;8.33;7.37;;;8.30;99.90;;;;;;5061608;28;20532;-60
2021/12/30 01:48:09;;;;;;;10.17;7.50;;;8.30;99.90;;;;;;5066336;28;20188;-59
2021/12/30 01:50:35;;;;;;;11.40;7.47;;;8.30;99.90;;;;;;5061738;28;20931;-62
2021/12/30 01:53:03;;;;;;;12.77;7.57;;;8.20;99.90;;;;;;5055501;28;20909;-57
2021/12/30 01:55:29;;;;;;;13.30;7.10;;;8.30;99.90;;;;;;5051651;28;20439;-62
2021/12/30 01:57:54;;;;;;;9.27;7.83;;;8.40;99.90;;;;;;5068060;28;20423;-58
2021/12/30 02:00:23;;;;;;;10.90;8.00;;;8.40;99.90;;;;;;5059970;28;20466;-61
2021/12/30 02:02:49;;;;;;;12.30;8.90;;;;;;;;;;5053269;28;20180;-60
2021/12/30 02:05:15;;;;;;;10.97;9.20;;;8.30;99.90;;;;;;5062651;28;20409;-60
2021/12/30 02:07:42;;;;;;;14.80;8.37;;;8.30;99.90;;;;;;5060881;28;20503;-60
2021/12/30 02:10:08;;;;;;;9.73;8.57;;;8.30;99.90;;;;;;5059917;28;20443;-60
2021/12/30 02:12:36;;;;;;;15.90;8.53;;;8.30;99.90;;;;;;5061033;28;20465;-59
2021/12/30 02:15:08;;;;;;;10.73;8.00;;;8.30;99.90;;;;;;5067337;28;20413;-57
2021/12/30 02:17:33;;;;;;;13.53;8.60;;;8.40;99.90;;;;;;5065657;28;20946;-59
2021/12/30 02:20:02;;;;;;;9.37;7.90;;;8.40;99.90;;;;;;5062511;28;20464;-59
2021/12/30 02:22:28;;;;;;;10.27;7.63;;;8.40;99.90;;;;;;5072990;28;20184;-59
2021/12/30 02:24:53;;;;;;;10.90;8.00;;;8.40;99.90;;;;;;5064218;28;20446;-58
2021/12/30 02:27:19;;;;;;;13.33;9.17;;;8.40;99.90;;;;;;5053018;28;20331;-59
2021/12/30 02:29:45;;;;;;;11.10;7.87;;;8.30;99.90;;;;;;5062527;28;20184;-60
2021/12/30 02:32:11;;;;;;;10.23;8.87;;;8.30;99.90;;;;;;5060232;28;20208;-61
2021/12/30 02:34:38;;;;;;;14.53;8.80;;;8.30;99.90;;;;;;5064873;28;20234;-57
2021/12/30 02:37:04;;;;;;;14.10;9.40;;;8.30;99.90;;;;;;5056533;28;20267;-60
2021/12/30 02:39:30;;;;;;;14.13;9.53;;;8.40;99.90;;;;;;5067428;28;20484;-59
2021/12/30 02:41:56;;;;;;;14.83;9.00;;;8.30;99.90;;;;;;5056919;28;20928;-59
2021/12/30 02:44:22;;;;;;;14.13;7.50;;;8.30;99.90;;;;;;5061518;28;20685;-59
2021/12/30 02:46:52;;;;;;;12.20;9.10;;;8.30;99.90;;;;;;5057199;28;20184;-60
2021/12/30 02:49:18;;;;;;;14.10;8.70;;;8.30;99.90;;;;;;5059529;28;20417;-59
2021/12/30 02:51:44;;;;;;;11.30;8.90;;;8.30;99.90;;;;;;5060304;28;20489;-57
2021/12/30 02:54:10;;;;;;;12.43;9.30;;;8.40;99.90;;;;;;5067127;28;20519;-59
2021/12/30 02:56:35;;;;;;;12.87;9.07;;;8.40;99.90;;;;;;5056306;28;20188;-59
2021/12/30 02:59:02;;;;;;;12.77;9.53;;;8.40;99.90;;;;;;5056199;28;20180;-61
2021/12/30 03:01:31;;;;;;;13.70;9.47;;;8.40;99.90;;;;;;5063665;28;20180;-59
2021/12/30 03:04:00;;;;;;;12.60;9.60;;;8.40;99.90;;;;;;5070475;28;20804;-59
2021/12/30 03:06:26;;;;;;;13.80;10.27;;;;;;;;;;5071607;28;20446;-58
2021/12/30 03:08:52;;;;;;;16.57;9.47;;;8.40;99.90;;;;;;5062004;28;20473;-59
2021/12/30 03:11:20;;;;;;;14.67;10.60;;;8.40;99.90;;;;;;5059673;28;20478;-58
2021/12/30 03:13:46;;;;;;;14.57;8.97;;;8.30;99.90;;;;;;5065137;28;20497;-60
2021/12/30 03:16:19;;;;;;;14.70;10.37;;;8.40;99.90;;;;;;5061710;28;20413;-60
2021/12/30 03:18:49;;;;;;;13.30;9.80;;;8.40;99.90;;;;;;5065376;28;20925;-60
2021/12/30 03:21:16;;;;;;;12.47;9.13;;;8.40;99.90;;;;;;5063786;28;20455;-61
2021/12/30 03:23:42;;;;;;;11.50;9.40;;;8.40;99.90;;;;;;5064885;28;20454;-60
2021/12/30 03:26:09;;;;;;;14.67;10.10;;;8.50;99.90;;;;;;5064699;28;20450;-60
2021/12/30 03:28:36;;;;;;;18.40;11.43;;;8.40;99.90;;;;;;5068937;28;20241;-59
2021/12/30 03:31:02;;;;;;;15.10;9.73;;;8.50;99.90;;;;;;5055619;28;20557;-60
2021/12/30 03:33:29;;;;;;;13.20;9.80;;;8.50;99.90;;;;;;5055577;28;20579;-59
2021/12/30 03:35:59;;;;;;;14.07;9.60;;;8.40;99.90;;;;;;5062351;28;20427;-61
2021/12/30 03:38:25;;;;;;;13.47;9.23;;;8.30;99.90;;;;;;5061979;28;20452;-60
2021/12/30 03:40:51;;;;;;;14.70;10.50;;;;;;;;;;5069833;28;20469;-59
2021/12/30 03:43:17;;;;;;;12.93;9.17;;;8.30;99.90;;;;;;5061422;28;20531;-58
2021/12/30 03:45:44;;;;;;;14.10;9.87;;;8.40;99.90;;;;;;5075854;28;20760;-60
2021/12/30 03:48:10;;;;;;;15.90;9.33;;;8.40;99.90;;;;;;5068067;28;20226;-58
2021/12/30 03:50:42;;;;;;;16.13;9.90;;;8.30;99.90;;;;;;5062839;28;20850;-58
2021/12/30 03:53:08;;;;;;;12.73;9.30;;;8.30;99.90;;;;;;5056993;28;20488;-58
2021/12/30 03:55:33;;;;;;;13.43;9.57;;;8.30;99.90;;;;;;5066977;28;20770;-60
2021/12/30 03:57:59;;;;;;;10.67;8.47;;;8.30;99.90;;;;;;5064154;28;20196;-59
2021/12/30 04:00:26;;;;;;;13.60;9.57;;;8.30;99.90;;;;;;5064798;28;20219;-60
2021/12/30 04:02:51;;;;;;;12.67;9.73;;;8.30;99.90;;;;;;5061580;28;20180;-58
2021/12/30 04:05:17;;;;;;;11.10;8.83;;;8.30;99.90;;;;;;5060167;28;20994;-58
2021/12/30 04:07:43;;;;;;;13.50;10.57;;;8.40;99.90;;;;;;5063379;28;20190;-59
2021/12/30 04:10:12;;;;;;;12.40;9.83;;;8.50;99.90;;;;;;5061514;28;21006;-60
2021/12/30 04:12:38;;;;;;;15.53;10.17;;;8.50;99.90;;;;;;5060946;28;20176;-60
2021/12/30 04:15:05;;;;;;;11.43;9.13;;;8.60;99.90;;;;;;5060156;28;20438;-61
2021/12/30 04:17:31;;;;;;;12.43;8.93;;;8.60;99.90;;;;;;5072515;28;20426;-60
2021/12/30 04:19:57;;;;;;;10.83;8.37;;;8.50;99.90;;;;;;5066789;28;20435;-60
2021/12/30 04:22:23;;;;;;;11.13;8.00;;;8.90;99.90;;;;;;5064311;28;20226;-61
2021/12/30 04:24:49;;;;;;;13.57;9.07;;;9.00;99.90;;;;;;5062893;28;20275;-60
2021/12/30 04:27:14;;;;;;;9.33;6.10;;;9.20;99.90;;;;;;5057876;28;20536;-59
2021/12/30 04:29:40;;;;;;;10.90;7.03;;;9.40;99.90;;;;;;5060272;28;20184;-59
2021/12/30 04:32:06;;;;;;;9.50;6.93;;;9.50;99.90;;;;;;5058529;28;20265;-60
2021/12/30 04:34:32;;;;;;;12.37;7.67;;;9.60;99.90;;;;;;5060390;28;20193;-60
2021/12/30 04:37:00;;;;;;;11.50;7.20;;;9.50;99.90;;;;;;5055171;28;20187;-58
2021/12/30 04:39:28;;;;;;;8.50;6.63;;;9.60;99.90;;;;;;5063236;28;20503;-58
2021/12/30 04:41:53;;;;;;;8.93;6.23;;;9.90;99.90;;;;;;5054679;28;20450;-59
2021/12/30 04:44:19;;;;;;;8.03;5.67;;;9.90;99.90;;;;;;5054577;28;20531;-59
2021/12/30 04:46:45;;;;;;;9.73;3.73;;;10.00;99.90;;;;;;5033628;28;20185;-58
2021/12/30 04:49:10;;;;;;;4.73;3.30;;;10.20;99.90;;;;;;5062852;28;20778;-58
2021/12/30 04:51:36;;;;;;;6.80;3.70;;;10.30;99.90;;;;;;5057712;28;20537;-59
2021/12/30 04:54:02;;;;;;;3.67;3.20;;;10.50;99.90;;;;;;5056421;28;20208;-58
2021/12/30 04:56:28;;;;;;;5.50;4.13;;;10.60;99.90;;;;;;5064781;28;20172;-60
2021/12/30 04:58:54;;;;;;;6.47;4.37;;;10.70;99.90;;;;;;5055022;28;21004;-59
2021/12/30 05:01:19;;;;;;;6.17;3.40;;;10.80;99.90;;;;;;5063607;28;20188;-58
2021/12/30 05:03:45;;;;;;;4.70;3.20;;;10.80;99.90;;;;;;5059517;28;20188;-59
2021/12/30 05:06:11;;;;;;;7.13;3.80;;;;;;;;;;5050916;28;20783;-62
2021/12/30 05:08:37;;;;;;;3.80;3.50;;;11.00;99.90;;;;;;5059753;28;20414;-61
2021/12/30 05:11:04;;;;;;;4.63;3.40;;;11.00;99.90;;;;;;5060888;28;20448;-61
2021/12/30 05:13:31;;;;;;;5.30;3.97;;;10.90;99.90;;;;;;5054781;28;20237;-61
2021/12/30 05:15:57;;;;;;;6.43;4.03;;;;;;;;;;5058728;28;20443;-61
2021/12/30 05:18:30;;;;;;;4.87;3.10;;;10.90;99.90;;;;;;5056809;28;20432;-60
2021/12/30 05:20:57;;;;;;;5.80;3.70;;;10.90;99.90;;;;;;5058618;28;20828;-60
2021/12/30 05:23:23;;;;;;;7.20;3.67;;;;;;;;;;5054372;28;20451;-61
2021/12/30 05:25:49;;;;;;;4.63;3.60;;;;;;;;;;5059174;28;20445;-60
2021/12/30 05:28:14;;;;;;;8.50;4.13;;;11.20;99.90;;;;;;5057320;28;20550;-60
2021/12/30 05:30:40;;;;;;;4.60;3.10;;;11.30;99.90;;;;;;5056941;28;20964;-59
2021/12/30 05:33:06;;;;;;;3.77;3.20;;;11.30;99.90;;;;;;5050726;28;20180;-60
2021/12/30 05:35:31;;;;;;;7.93;4.40;;;11.30;99.90;;;;;;5051916;28;20526;-62
2021/12/30 05:37:58;;;;;;;4.90;2.83;;;11.30;99.90;;;;;;5049339;28;20191;-60
2021/12/30 05:40:24;;;;;;;5.43;3.53;;;11.30;99.90;;;;;;5048485;28;20189;-60
2021/12/30 05:42:50;;;;;;;6.97;3.90;;;;;;;;;;5048968;28;20433;-62
2021/12/30 05:45:17;;;;;;;5.10;3.40;;;11.40;99.90;;;;;;5055993;28;20267;-60
2021/12/30 05:47:46;;;;;;;5.60;4.60;;;11.40;99.90;;;;;;5050993;28;20924;-60
2021/12/30 05:50:13;;;;;;;3.73;3.37;;;11.30;99.90;;;;;;5047966;28;20449;-60
2021/12/30 05:52:39;;;;;;;4.70;2.90;;;11.30;99.90;;;;;;5049296;28;20470;-59
2021/12/30 05:55:06;;;;;;;11.07;3.77;;;11.30;99.90;;;;;;5056534;28;20444;-59
2021/12/30 05:57:32;;;;;;;6.07;3.93;;;11.30;99.90;;;;;;5056575;28;20668;-60
2021/12/30 05:59:58;;;;;;;5.10;3.30;;;11.40;99.90;;;;;;5050124;28;20509;-60
2021/12/30 06:02:23;;;;;;;5.70;3.20;;;11.50;99.90;;;;;;5053510;28;20654;-61
2021/12/30 06:04:49;;;;;;;5.03;4.00;;;11.50;99.90;;;;;;5049348;28;20513;-59
2021/12/30 06:07:15;;;;;;;6.03;3.90;;;11.40;99.90;;;;;;5048618;28;20246;-61
2021/12/30 06:09:41;;;;;;;5.13;4.03;;;;;;;;;;5048160;28;20192;-61
2021/12/30 06:12:08;;;;;;;6.23;3.63;;;11.40;99.90;;;;;;5049621;28;20208;-61
2021/12/30 06:14:33;;;;;;;6.80;3.70;;;11.30;99.90;;;;;;5049713;28;20447;-61
2021/12/30 06:16:59;;;;;;;6.40;4.33;;;11.40;99.90;;;;;;5061868;28;20457;-60
2021/12/30 06:19:25;;;;;;;6.17;3.50;;;;;;;;;;5049010;28;20195;-62
2021/12/30 06:21:51;;;;;;;7.53;3.80;;;11.30;99.90;;;;;;5056802;28;20193;-61
2021/12/30 06:24:16;;;;;;;6.53;4.33;;;11.30;99.90;;;;;;5069290;28;20446;-63
2021/12/30 06:26:42;;;;;;;8.93;4.87;;;11.30;99.90;;;;;;5052079;28;20222;-60
2021/12/30 06:29:08;;;;;;;7.60;5.23;;;11.30;99.90;;;;;;5061060;28;20294;-60
2021/12/30 06:31:34;;;;;;;7.63;4.30;;;;;;;;;;5061526;28;20298;-61
2021/12/30 06:33:59;;;;;;;5.00;3.83;;;11.30;99.90;;;;;;5069194;28;20192;-60
2021/12/30 06:36:25;;;;;;;5.10;4.40;;;11.30;99.90;;;;;;5058560;28;20813;-63
2021/12/30 06:38:51;;;;;;;7.70;4.03;;;11.30;99.90;;;;;;5058172;28;20263;-62
2021/12/30 06:41:17;;;;;;;7.03;4.17;;;11.20;99.90;;;;;;5069781;28;20188;-61
2021/12/30 06:43:43;;;;;;;6.73;4.20;;;11.40;99.90;;;;;;5055883;28;20188;-61
2021/12/30 06:46:10;;;;;;;9.53;4.53;;;11.30;99.90;;;;;;5053203;28;20793;-60
2021/12/30 06:48:44;;;;;;;5.17;3.67;;;11.30;99.90;;;;;;5053166;28;20723;-60
2021/12/30 06:51:10;;;;;;;5.73;3.37;;;11.00;99.90;;;;;;5058918;28;20440;-60
2021/12/30 06:53:36;;;;;;;6.00;3.80;;;11.10;99.90;;;;;;5057144;28;20441;-62
2021/12/30 06:56:02;;;;;;;4.43;3.80;;;11.40;99.90;;;;;;5052385;28;20936;-63
2021/12/30 06:58:28;;;;;;;11.17;6.70;;;11.10;99.90;;;;;;5053128;28;20191;-63
2021/12/30 07:00:54;;;;;;;9.23;6.17;;;;;;;;;;5055356;28;20648;-63
2021/12/30 07:03:20;;;;;;;8.77;5.17;;;11.20;99.90;;;;;;5059846;28;20442;-63
2021/12/30 07:05:45;;;;;;;6.70;3.77;;;11.00;99.90;;;;;;5063633;28;20445;-61
2021/12/30 07:08:11;;;;;;;5.97;3.60;;;11.30;99.90;;;;;;5052762;28;20184;-62
2021/12/30 07:10:37;;;;;;;8.17;3.43;;;;;;;;;;5053658;28;20228;-62
2021/12/30 07:13:02;;;;;;;6.60;4.17;;;11.40;99.90;;;;;;5055992;28;20180;-63
2021/12/30 07:15:28;;;;;;;4.83;4.00;;;11.20;99.90;;;;;;5057544;28;20450;-62
2021/12/30 07:17:53;;;;;;;8.27;4.33;;;11.20;99.90;;;;;;5062561;28;20226;-62
2021/12/30 07:20:19;;;;;;;6.10;4.63;;;;;;;;;;5054662;28;20208;-63
2021/12/30 07:22:45;;;;;;;5.83;3.67;;;11.40;99.90;;;;;;5061781;28;20476;-64
2021/12/30 07:25:18;;;;;;;5.37;3.23;;;11.50;99.90;;;;;;5061251;28;20463;-63
2021/12/30 07:27:48;;;;;;;5.23;3.33;;;11.70;99.90;;;;;;5065711;28;20219;-63
2021/12/30 07:30:14;;;;;;;5.33;3.07;;;11.70;99.90;;;;;;5058263;28;20581;-63
2021/12/30 07:32:40;;;;;;;3.37;3.03;;;12.00;99.90;;;;;;5053444;28;20538;-63
2021/12/30 07:35:06;;;;;;;3.70;3.30;;;;;;;;;;5058892;28;20540;-62
2021/12/30 07:37:32;;;;;;;3.60;3.30;;;;;;;;;;5066097;28;20202;-63
2021/12/30 07:39:58;;;;;;;6.37;2.93;;;12.20;99.90;;;;;;5059855;28;20447;-62
2021/12/30 07:42:24;;;;;;;7.47;3.13;;;;;;;;;;5051652;28;20461;-60
2021/12/30 07:44:49;;;;;;;6.77;3.20;;;12.30;99.90;;;;;;5052135;28;20204;-62
2021/12/30 07:47:15;;;;;;;7.70;3.77;;;;;;;;;;5051916;28;20542;-63
2021/12/30 07:49:41;;;;;;;8.03;4.13;;;;;;;;;;5058641;28;20607;-64
2021/12/30 07:52:07;;;;;;;4.80;3.33;;;12.40;99.90;;;;;;5065990;28;21411;-62
2021/12/30 07:54:33;;;;;;;6.03;3.70;;;12.40;99.90;;;;;;5064761;28;20425;-63
2021/12/30 07:56:59;;;;;;;5.90;3.53;;;12.50;93.90;;;;;;5057534;28;20188;-63
2021/12/30 07:59:25;;;;;;;5.57;3.40;;;;;;;;;;5061916;28;20431;-60
2021/12/30 08:01:51;;;;;;;5.00;3.20;;;12.50;84.90;;;;;;5057987;28;20466;-62
2021/12/30 08:04:17;;;;;;;4.87;3.40;;;;;;;;;;5061880;28;21245;-64
2021/12/30 08:06:43;;;;;;;5.83;3.23;;;12.50;82.70;;;;;;5055753;28;20204;-61
2021/12/30 08:09:08;;;;;;;6.63;3.37;;;12.50;80.70;;;;;;5060607;28;20453;-62
2021/12/30 08:11:35;;;;;;;6.87;4.03;;;12.50;77.40;;;;;;5064908;28;20672;-63
2021/12/30 08:14:01;;;;;;;4.80;3.00;;;12.50;75.60;;;;;;5062894;28;20728;-62
2021/12/30 08:16:27;;;;;;;4.63;3.50;;;12.60;68.80;;;;;;5063971;28;20517;-62
2021/12/30 08:18:53;;;;;;;3.43;2.60;;;12.70;54.50;;;;;;5067786;28;20184;-61
2021/12/30 08:21:20;;;;;;;4.60;3.73;;;12.60;56.90;;;;;;5064468;28;20527;-62
2021/12/30 08:23:46;;;;;;;7.10;3.43;;;12.60;49.00;;;;;;5063347;28;20176;-62
2021/12/30 08:26:12;;;;;;;4.83;3.17;;;12.70;37.20;;;;;;5062196;28;20455;-60
2021/12/30 08:28:37;;;;;;;2.87;2.57;;;12.70;36.10;;;;;;5058565;28;20493;-61
2021/12/30 08:31:03;;;;;;;5.87;3.50;;;12.80;29.40;;;;;;5068214;28;20469;-62
2021/12/30 08:33:29;;;;;;;4.70;3.40;;;12.90;22.60;;;;;;5061149;28;20231;-63
2021/12/30 08:35:55;;;;;;;9.80;4.13;;;12.80;21.90;;;;;;5070794;28;20465;-61
2021/12/30 08:38:21;;;;;;;3.50;2.80;;;;;;;;;;5062426;28;20185;-61
2021/12/30 08:40:47;;;;;;;7.20;3.43;;;12.90;15.10;;;;;;5051620;28;20190;-63
2021/12/30 08:43:14;;;;;;;5.80;3.83;;;12.90;6.20;;;;;;5068450;28;20521;-62
2021/12/30 08:45:40;;;;;;;5.67;3.50;;;12.80;8.00;;;;;;5049561;28;20443;-63
2021/12/30 08:48:06;;;;;;;7.60;3.50;;;13.10;3.90;;;;;;5055135;28;20460;-63
2021/12/30 08:50:32;;;;;;;6.70;2.97;;;13.00;1.00;;;;;;5058913;28;21194;-62
2021/12/30 08:52:58;;;;;;;5.60;3.00;;;13.00;1.20;;;;;;5052426;28;20238;-62
2021/12/30 08:55:24;;;;;;;5.73;3.53;;;13.10;1.00;;;;;;5059682;28;20447;-62
2021/12/30 08:57:51;;;;;;;7.50;3.70;;;13.10;1.00;;;;;;5063291;28;20194;-62
2021/12/30 09:00:24;;;;;;;10.40;4.03;;;13.10;1.00;;;;;;5061690;28;20491;-62
2021/12/30 09:02:50;;;;;;;5.40;3.30;;;13.20;1.00;;;;;;5053589;28;20413;-61
2021/12/30 09:05:16;;;;;;;10.20;3.90;;;13.20;1.00;;;;;;5056883;28;20477;-63
2021/12/30 09:07:42;;;;;;;6.03;3.40;;;13.20;1.00;;;;;;5054928;28;20476;-63
2021/12/30 09:10:10;;;;;;;4.80;3.90;;;13.30;1.00;;;;;;5054025;28;20609;-62
2021/12/30 09:12:37;;;;;;;12.73;4.30;;;13.20;1.00;;;;;;5070814;28;20511;-62
2021/12/30 09:15:05;;;;;;;3.60;3.07;;;13.20;1.00;;;;;;5065368;28;20533;-61
2021/12/30 09:17:31;;;;;;;5.13;3.67;;;13.20;1.00;;;;;;5055751;28;20442;-62
2021/12/30 09:19:57;;;;;;;7.57;3.90;;;13.30;1.00;;;;;;5063784;28;20491;-61
2021/12/30 09:22:22;;;;;;;4.93;3.27;;;13.20;1.00;;;;;;5050626;28;20519;-62
2021/12/30 09:24:48;;;;;;;5.97;3.73;;;13.40;1.00;;;;;;5050332;28;20195;-61
2021/12/30 09:27:13;;;;;;;6.27;3.77;;;13.40;1.00;;;;;;5050368;28;20283;-62
2021/12/30 09:29:39;;;;;;;5.63;4.07;;;13.40;1.00;;;;;;5066806;28;20642;-63
2021/12/30 09:32:05;;;;;;;4.70;3.83;;;13.30;1.00;;;;;;5060446;28;20214;-62
2021/12/30 09:34:38;;;;;;;6.80;3.97;;;;;;;;;;5052935;28;20603;-62
2021/12/30 09:37:08;;;;;;;6.70;3.80;;;13.30;1.00;;;;;;5068966;28;20429;-62
2021/12/30 09:39:35;;;;;;;5.53;3.47;;;13.40;1.00;;;;;;5069596;28;20883;-62
2021/12/30 09:42:01;;;;;;;8.27;3.80;;;13.60;1.00;;;;;;5050689;28;20477;-63
2021/12/30 09:44:27;;;;;;;4.97;4.30;;;;;;;;;;5068065;28;20524;-62
2021/12/30 09:46:53;;;;;;;7.40;3.63;;;13.60;1.00;;;;;;5059623;28;20446;-62
2021/12/30 09:49:22;;;;;;;6.43;3.30;;;13.70;1.00;;;;;;5053976;28;20409;-62
2021/12/30 09:51:48;;;;;;;6.07;3.60;;;13.70;1.00;;;;;;5050173;28;20449;-62
2021/12/30 09:54:14;;;;;;;5.93;3.00;;;;;;;;;;5055875;28;20418;-64
2021/12/30 09:56:40;;;;;;;4.00;2.93;;;14.00;1.00;;;;;;5050145;28;20542;-63
2021/12/30 09:59:07;;;;;;;6.23;3.70;;;14.00;1.00;;;;;;5056951;28;20439;-61
2021/12/30 10:01:35;;;;;;;5.20;2.90;;;14.20;1.00;;;;;;5058986;28;20442;-63
2021/12/30 10:04:02;;;;;;;7.37;2.83;;;14.20;1.00;;;;;;5056179;28;20482;-61
2021/12/30 10:06:30;;;;;;;8.37;3.60;;;14.40;1.00;;;;;;5050389;28;20471;-63
2021/12/30 10:09:09;;;;;;;6.20;3.03;;;14.40;1.00;;;;;;5067540;28;20525;-63
2021/12/30 10:11:53;;;;;;;6.27;3.33;;;14.30;1.00;;;;;;5070026;28;20467;-62
2021/12/30 10:14:34;;;;;;;8.80;3.10;;;14.30;1.00;;;;;;5053759;28;20806;-61
2021/12/30 10:17:20;;;;;;;4.80;2.57;;;14.20;1.00;;;;;;5065261;28;20473;-65
2021/12/30 10:19:47;;;;;;;5.70;2.40;;;14.40;1.00;;;;;;5058217;28;20524;-60
2021/12/30 10:22:15;;;;;;;6.33;2.70;;;14.40;1.00;;;;;;5051845;28;20446;-63
2021/12/30 10:24:41;;;;;;;4.97;2.33;;;14.40;1.00;;;;;;5049713;28;20452;-62
2021/12/30 10:27:08;;;;;;;3.90;2.63;;;14.50;1.00;;;;;;5049613;28;20476;-63
2021/12/30 10:29:43;;;;;;;10.80;2.83;;;14.40;1.00;;;;;;5066787;28;20402;-63
2021/12/30 10:32:17;;;;;;;8.13;2.70;;;14.60;1.00;;;;;;5052596;28;20437;-61
2021/12/30 10:35:21;;;;;;;7.17;2.93;;;14.60;1.00;;;;;;5048025;28;20884;-62
2021/12/30 10:37:59;;;;;;;8.03;2.33;;;14.60;1.00;;;;;;5041370;28;20546;-65
2021/12/30 10:40:27;;;;;;;4.53;2.43;;;14.60;1.00;;;;;;5034523;28;20514;-63
2021/12/30 10:43:27;;;;;;;6.53;2.30;;;14.30;1.00;;;;;;5050624;28;20800;-62
2021/12/30 10:46:05;;;;;;;3.73;2.30;;;;;;;;;;5063355;28;20450;-61
2021/12/30 10:48:31;;;;;;;3.87;1.87;;;14.50;1.00;;;;;;5060408;28;20503;-63
2021/12/30 10:51:15;;;;;;;7.00;2.30;;;14.40;1.00;;;;;;5064138;28;20464;-63
2021/12/30 10:53:42;;;;;;;4.73;2.70;;;;;;;;;;5047311;28;20420;-63
2021/12/30 10:56:29;;;;;;;4.13;2.60;;;14.30;1.00;;;;;;5065365;28;20423;-64
2021/12/30 10:59:11;;;;;;;5.73;2.50;;;14.30;1.00;;;;;;5069072;28;20543;-63
2021/12/30 11:01:59;;;;;;;8.10;3.70;;;14.20;1.00;;;;;;5068827;28;20438;-62
2021/12/30 11:04:56;;;;;;;7.90;3.93;;;14.20;1.00;;;;;;5064914;28;20433;-62
2021/12/30 11:07:46;;;;;;;3.63;2.40;;;14.10;1.00;;;;;;5069394;28;20433;-63
2021/12/30 11:10:14;;;;;;;5.73;2.80;;;14.10;1.00;;;;;;5066462;28;20428;-62
2021/12/30 11:12:44;;;;;;;5.87;3.27;;;14.20;1.00;;;;;;5070982;28;20492;-63
2021/12/30 11:15:25;;;;;;;6.70;2.83;;;14.10;1.00;;;;;;5052745;28;20443;-63
2021/12/30 11:17:51;;;;;;;4.07;2.83;;;;;;;;;;5052439;28;20515;-62
2021/12/30 11:20:19;;;;;;;3.20;2.40;;;14.10;1.00;;;;;;5051854;28;20415;-62
2021/12/30 11:22:48;;;;;;;4.47;2.20;;;14.20;1.00;;;;;;5052450;28;20468;-63
2021/12/30 11:25:17;;;;;;;5.23;2.17;;;14.30;1.00;;;;;;5068088;28;20456;-62
2021/12/30 11:27:44;;;;;;;4.87;2.23;;;14.30;1.00;;;;;;5057181;28;20445;-62
2021/12/30 11:30:11;;;;;;;2.53;1.50;;;14.40;1.00;;;;;;5064367;28;20413;-63
2021/12/30 11:32:37;;;;;;;2.10;1.87;;;14.60;1.00;;;;;;5072192;28;20432;-62
2021/12/30 11:35:05;;;;;;;1.63;1.30;;;14.60;1.00;;;;;;5059159;28;20411;-64
2021/12/30 11:37:32;;;;;;;4.67;1.23;;;14.50;1.00;;;;;;5069674;28;20587;-62
2021/12/30 11:40:06;;;;;;;2.80;2.10;;;14.50;1.00;;;;;;5072153;28;20436;-62
2021/12/30 11:42:41;;;;;;;3.13;1.67;;;14.50;1.00;;;;;;5072517;28;20465;-64
2021/12/30 11:45:27;;;;;;;3.13;2.10;;;14.50;1.00;;;;;;5072140;28;20892;-63
2021/12/30 11:47:54;;;;;;;2.27;1.77;;;14.50;1.00;;;;;;5062446;28;20834;-63
2021/12/30 11:50:32;;;;;;;3.73;1.83;;;14.50;1.00;;;;;;5057835;28;20923;-62
2021/12/30 11:53:12;;;;;;;3.23;1.47;;;14.50;1.00;;;;;;5052042;28;20414;-62
2021/12/30 11:56:01;;;;;;;5.10;1.63;;;14.50;1.00;;;;;;5050640;28;20785;-61
2021/12/30 11:58:31;;;;;;;3.63;1.50;;;14.80;1.00;;;;;;5052093;28;20408;-64
2021/12/30 12:01:06;;;;;;;4.70;1.60;;;14.80;1.00;;;;;;5056465;28;20576;-62
2021/12/30 12:03:38;;;;;;;2.40;1.40;;;14.90;1.00;;;;;;5055194;28;20411;-62
2021/12/30 12:06:23;;;;;;;4.67;1.40;;;14.70;1.00;;;;;;5058306;28;20481;-61
2021/12/30 12:08:50;;;;;;;2.60;1.23;;;14.80;1.00;;;;;;5050456;28;20859;-61
2021/12/30 12:11:21;;;;;;;2.83;1.40;;;14.80;1.00;;;;;;5057165;28;20745;-62
2021/12/30 12:13:49;;;;;;;4.43;1.03;;;14.90;1.00;;;;;;5060630;28;20409;-62
2021/12/30 12:16:47;;;;;;;3.13;1.50;;;15.00;1.00;;;;;;5071705;28;20466;-62
2021/12/30 12:19:14;;;;;;;3.17;1.20;;;14.70;1.00;;;;;;5054355;28;20436;-63
2021/12/30 12:21:42;;;;;;;1.73;1.27;;;14.90;1.00;;;;;;5051254;28;20434;-61
2021/12/30 12:24:25;;;;;;;1.90;0.87;;;14.90;1.00;;;;;;5069684;28;20442;-62
2021/12/30 12:26:54;;;;;;;1.97;1.10;;;14.70;1.00;;;;;;5071082;28;20464;-63
2021/12/30 12:29:38;;;;;;;1.07;0.77;;;14.70;1.00;;;;;;5071416;28;20453;-63
2021/12/30 12:32:14;;;;;;;1.67;1.20;;;14.60;1.00;;;;;;5061679;28;20459;-62
2021/12/30 12:34:51;;;;;;;1.47;0.93;;;14.60;1.00;;;;;;5055287;28;20421;-61
2021/12/30 12:37:32;;;;;;;4.43;1.13;;;14.60;1.00;;;;;;5050401;28;20424;-63
2021/12/30 12:40:10;;;;;;;2.03;0.90;;;14.60;1.00;;;;;;5051202;28;20414;-62
2021/12/30 12:42:53;;;;;;;5.10;1.40;;;14.50;13.80;;;;;;5062714;28;20424;-61
2021/12/30 12:45:26;;;;;;;4.00;1.27;;;14.40;44.50;;;;;;5058373;28;20490;-61
2021/12/30 12:48:22;;;;;;;3.00;1.20;;;14.40;58.30;;;;;;5070331;28;20413;-62
2021/12/30 12:50:48;;;;;;;1.53;0.83;;;;;;;;;;5060979;28;20434;-63
2021/12/30 12:53:26;;;;;;;2.63;1.53;;;14.30;79.70;;;;;;5055189;28;20406;-61
2021/12/30 12:55:57;;;;;;;1.27;0.97;;;14.20;91.30;;;;;;5062133;28;20943;-62
2021/12/30 12:58:26;;;;;;;1.23;1.13;;;14.30;89.90;;;;;;5050509;28;20545;-63
2021/12/30 13:00:55;;;;;;;2.93;0.90;;;14.20;91.60;;;;;;5064296;28;20437;-63
2021/12/30 13:03:21;;;;;;;1.80;1.10;;;;;;;;;;5065882;28;20431;-61
2021/12/30 13:06:17;;;;;;;2.60;1.20;;;14.10;99.90;;;;;;5050492;28;20521;-62